createdAt,value
2019-03-29T00:01:50.316Z,63.12
2019-03-29T00:04:17.345Z,63.11
2019-03-29T00:06:44.846Z,63.22
2019-03-29T00:09:12.413Z,63.29
2019-03-29T00:11:39.887Z,63.25
2019-03-29T00:14:07.366Z,63.27
2019-03-29T00:16:34.819Z,63.04
2019-03-29T00:19:02.324Z,63.21
2019-03-29T00:21:29.710Z,63.41
2019-03-29T00:24:06.659Z,63.61
2019-03-29T00:26:25.548Z,63.50
2019-03-29T00:28:52.137Z,63.70
2019-03-29T00:31:19.582Z,63.77
2019-03-29T00:33:47.056Z,63.79
2019-03-29T00:36:15.465Z,63.70
2019-03-29T00:38:43.085Z,63.70
2019-03-29T00:41:10.549Z,63.71
2019-03-29T00:43:37.982Z,63.70
2019-03-29T00:46:05.440Z,63.63
2019-03-29T00:48:35.450Z,63.72
2019-03-29T00:51:00.387Z,63.75
2019-03-29T00:53:28.005Z,63.98
2019-03-29T00:55:55.460Z,63.91
2019-03-29T00:58:22.981Z,64.09
2019-03-29T01:00:50.404Z,64.24
2019-03-29T01:03:17.886Z,64.10
2019-03-29T01:05:46.257Z,64.35
2019-03-29T01:08:12.841Z,64.38
2019-03-29T01:10:40.289Z,64.39
2019-03-29T01:13:08.625Z,64.42
2019-03-29T01:15:36.173Z,64.39
2019-03-29T01:18:03.551Z,63.41
2019-03-29T01:20:30.990Z,63.77
2019-03-29T01:22:58.441Z,64.02
2019-03-29T01:25:25.887Z,63.85
2019-03-29T01:27:53.962Z,63.77
2019-03-29T01:30:21.397Z,64.48
2019-03-29T01:32:48.852Z,63.61
2019-03-29T01:35:16.297Z,64.63
2019-03-29T01:37:43.740Z,64.53
2019-03-29T01:40:11.189Z,64.98
2019-03-29T01:42:39.096Z,65.37
2019-03-29T01:45:06.595Z,64.98
2019-03-29T01:47:34.036Z,65.47
2019-03-29T01:50:01.511Z,64.94
2019-03-29T01:52:31.516Z,65.60
2019-03-29T01:54:57.120Z,65.54
2019-03-29T01:57:23.949Z,64.76
2019-03-29T01:59:51.422Z,65.33
2019-03-29T02:02:18.868Z,65.50
2019-03-29T02:04:46.334Z,65.47
2019-03-29T02:07:13.807Z,66.45
2019-03-29T02:09:41.249Z,66.04
2019-03-29T02:12:09.620Z,65.72
2019-03-29T02:14:37.063Z,65.58
2019-03-29T02:17:04.509Z,65.84
2019-03-29T02:19:32.721Z,67.03
2019-03-29T02:22:00.299Z,66.83
2019-03-29T02:24:27.822Z,67.40
2019-03-29T02:26:55.270Z,67.44
2019-03-29T02:29:22.744Z,67.86
2019-03-29T02:31:50.192Z,67.84
2019-03-29T02:34:17.755Z,69.17
2019-03-29T02:36:45.231Z,69.21
2019-03-29T02:39:12.689Z,68.30
2019-03-29T02:41:40.146Z,68.66
2019-03-29T02:44:07.958Z,68.41
2019-03-29T02:46:36.268Z,68.35
2019-03-29T02:49:03.849Z,69.14
2019-03-29T02:51:32.617Z,69.70
2019-03-29T02:53:58.879Z,70.42
2019-03-29T02:56:26.332Z,70.54
2019-03-29T02:58:53.782Z,71.72
2019-03-29T03:01:21.230Z,71.28
2019-03-29T03:03:48.674Z,71.35
2019-03-29T03:06:16.146Z,71.67
2019-03-29T03:08:43.733Z,70.68
2019-03-29T03:11:11.181Z,70.45
2019-03-29T03:13:38.666Z,70.17
2019-03-29T03:16:06.112Z,70.11
2019-03-29T03:18:33.568Z,70.81
2019-03-29T03:21:01.016Z,70.62
2019-03-29T03:23:28.494Z,70.25
2019-03-29T03:25:56.023Z,70.34
2019-03-29T03:28:23.401Z,69.98
2019-03-29T03:30:50.822Z,69.80
2019-03-29T03:33:18.310Z,69.57
2019-03-29T03:35:45.893Z,69.15
2019-03-29T03:38:13.335Z,69.16
2019-03-29T03:40:41.271Z,69.00
2019-03-29T03:43:08.746Z,68.99
2019-03-29T03:45:36.181Z,69.13
2019-03-29T03:48:03.641Z,68.79
2019-03-29T03:50:31.923Z,68.64
2019-03-29T03:52:59.446Z,70.38
2019-03-29T03:55:26.997Z,69.52
2019-03-29T03:57:57.659Z,69.62
2019-03-29T04:00:21.896Z,69.36
2019-03-29T04:02:49.329Z,69.55
2019-03-29T04:05:16.797Z,69.52
2019-03-29T04:07:44.238Z,69.14
2019-03-29T04:10:11.919Z,69.17
2019-03-29T04:12:39.370Z,69.18
2019-03-29T04:15:06.859Z,69.18
2019-03-29T04:17:34.302Z,69.58
2019-03-29T04:20:01.799Z,70.00
2019-03-29T04:22:29.255Z,70.03
2019-03-29T04:24:56.689Z,69.62
2019-03-29T04:27:24.149Z,69.76
2019-03-29T04:29:51.607Z,69.33
2019-03-29T04:32:19.025Z,70.21
2019-03-29T04:34:46.471Z,70.16
2019-03-29T04:37:13.885Z,70.46
2019-03-29T04:39:42.395Z,70.45
2019-03-29T04:42:09.845Z,70.69
2019-03-29T04:44:37.301Z,71.23
2019-03-29T04:47:04.739Z,71.44
2019-03-29T04:49:32.241Z,70.75
2019-03-29T04:51:59.651Z,70.64
2019-03-29T04:54:27.097Z,70.78
2019-03-29T04:56:54.530Z,71.03
2019-03-29T04:59:21.990Z,71.00
2019-03-29T05:01:49.482Z,71.07
2019-03-29T05:04:18.469Z,71.12
2019-03-29T05:06:46.243Z,71.07
2019-03-29T05:09:13.715Z,71.59
2019-03-29T05:11:41.123Z,72.01
2019-03-29T05:14:08.619Z,72.08
2019-03-29T05:16:36.744Z,72.02
2019-03-29T05:19:04.179Z,72.38
2019-03-29T05:21:31.613Z,72.38
2019-03-29T05:23:59.058Z,72.58
2019-03-29T05:26:26.520Z,72.09
2019-03-29T05:28:53.998Z,71.99
2019-03-29T05:31:21.447Z,71.78
2019-03-29T05:33:48.898Z,73.01
2019-03-29T05:36:16.381Z,73.87
2019-03-29T05:38:43.890Z,73.13
2019-03-29T05:41:11.330Z,72.88
2019-03-29T05:43:38.773Z,73.16
2019-03-29T05:46:06.270Z,73.51
2019-03-29T05:48:33.709Z,74.54
2019-03-29T05:51:01.161Z,74.66
2019-03-29T05:53:28.633Z,74.24
2019-03-29T05:55:56.127Z,75.04
2019-03-29T05:58:23.869Z,74.29
2019-03-29T06:00:51.321Z,74.66
2019-03-29T06:03:19.356Z,73.93
2019-03-29T06:05:46.851Z,73.89
2019-03-29T06:08:14.664Z,73.43
2019-03-29T06:10:48.746Z,73.98
2019-03-29T06:13:09.564Z,73.72
2019-03-29T06:15:37.124Z,74.16
2019-03-29T06:18:04.712Z,73.95
2019-03-29T06:20:32.197Z,74.08
2019-03-29T06:22:59.654Z,73.44
2019-03-29T06:25:27.082Z,73.26
2019-03-29T06:27:54.610Z,73.00
2019-03-29T06:30:31.133Z,72.41
2019-03-29T06:32:58.615Z,71.91
2019-03-29T06:35:26.088Z,72.03
2019-03-29T06:37:53.513Z,72.23
2019-03-29T06:40:23.456Z,72.69
2019-03-29T06:42:50.893Z,72.40
2019-03-29T06:45:18.516Z,73.13
2019-03-29T06:47:46.918Z,72.65
2019-03-29T06:50:14.776Z,73.25
2019-03-29T06:52:42.238Z,72.86
2019-03-29T06:55:09.726Z,72.04
2019-03-29T06:57:37.184Z,72.04
2019-03-29T07:00:05.621Z,71.79
2019-03-29T07:02:33.054Z,71.90
2019-03-29T07:05:00.540Z,71.22
2019-03-29T07:07:28.005Z,71.99
2019-03-29T07:09:55.445Z,71.81
2019-03-29T07:12:22.963Z,71.94
2019-03-29T07:14:50.434Z,72.90
2019-03-29T07:17:18.317Z,72.23
2019-03-29T07:19:45.765Z,72.20
2019-03-29T07:22:13.267Z,72.43
2019-03-29T07:24:40.691Z,71.79
2019-03-29T07:27:08.154Z,71.83
2019-03-29T07:29:35.571Z,71.63
2019-03-29T07:32:03.037Z,71.09
2019-03-29T07:34:33.097Z,71.09
2019-03-29T07:37:00.683Z,70.97
2019-03-29T07:39:28.131Z,70.62
2019-03-29T07:41:55.576Z,70.78
2019-03-29T07:44:23.001Z,70.38
2019-03-29T07:46:50.654Z,70.33
2019-03-29T07:49:18.097Z,70.97
2019-03-29T07:51:45.870Z,70.33
2019-03-29T07:54:13.341Z,69.42
2019-03-29T07:56:40.817Z,69.20
2019-03-29T07:59:08.290Z,68.79
2019-03-29T08:01:38.750Z,67.76
2019-03-29T08:04:06.231Z,67.54
2019-03-29T08:06:33.672Z,68.42
2019-03-29T08:09:01.322Z,67.79
2019-03-29T08:11:28.679Z,67.08
2019-03-29T08:13:56.076Z,67.18
2019-03-29T08:16:23.521Z,65.94
2019-03-29T08:18:51.046Z,66.31
2019-03-29T08:21:18.540Z,67.18
2019-03-29T08:23:46.871Z,67.00
2019-03-29T08:26:14.363Z,66.17
2019-03-29T08:28:41.814Z,67.45
2019-03-29T08:31:09.267Z,66.48
2019-03-29T08:33:36.715Z,66.68
2019-03-29T08:36:04.170Z,66.68
2019-03-29T08:38:31.641Z,65.79
2019-03-29T08:40:59.168Z,65.78
2019-03-29T08:43:26.568Z,65.61
2019-03-29T08:45:57.340Z,64.87
2019-03-29T08:48:21.508Z,64.63
2019-03-29T08:50:48.966Z,64.47
2019-03-29T08:53:16.957Z,64.21
2019-03-29T08:55:45.885Z,64.36
2019-03-29T08:58:11.907Z,63.73
2019-03-29T09:00:39.379Z,64.77
2019-03-29T09:03:06.798Z,64.00
2019-03-29T09:05:34.282Z,64.68
2019-03-29T09:08:01.723Z,63.75
2019-03-29T09:10:29.163Z,63.10
2019-03-29T09:12:57.181Z,63.95
2019-03-29T09:15:24.649Z,62.95
2019-03-29T09:17:52.116Z,64.31
2019-03-29T09:20:19.601Z,62.66
2019-03-29T09:22:47.705Z,61.87
2019-03-29T09:25:16.166Z,63.16
2019-03-29T09:27:43.708Z,63.66
2019-03-29T09:30:11.135Z,62.78
2019-03-29T09:32:38.593Z,62.10
2019-03-29T09:35:06.039Z,62.45
2019-03-29T09:37:33.508Z,60.72
2019-03-29T09:40:00.961Z,62.75
2019-03-29T09:42:30.019Z,61.91
2019-03-29T09:44:55.898Z,61.88
2019-03-29T09:47:23.350Z,60.51
2019-03-29T09:49:50.821Z,61.43
2019-03-29T09:52:18.282Z,59.96
2019-03-29T09:54:45.754Z,60.64
2019-03-29T09:57:15.584Z,60.86
2019-03-29T09:59:40.702Z,60.34
2019-03-29T10:02:08.145Z,60.45
2019-03-29T10:04:35.631Z,60.79
2019-03-29T10:07:03.066Z,57.84
2019-03-29T10:09:30.519Z,58.84
2019-03-29T10:11:57.978Z,59.12
2019-03-29T10:14:25.422Z,57.33
2019-03-29T10:16:52.887Z,58.34
2019-03-29T10:19:21.261Z,60.03
2019-03-29T10:21:48.974Z,58.08
2019-03-29T10:24:16.882Z,58.60
2019-03-29T10:26:44.389Z,59.34
2019-03-29T10:29:11.935Z,58.33
2019-03-29T10:31:39.374Z,56.45
2019-03-29T10:34:06.806Z,58.03
2019-03-29T10:36:34.270Z,58.72
2019-03-29T10:39:01.727Z,59.39
2019-03-29T10:41:29.161Z,58.57
2019-03-29T10:43:56.621Z,55.66
2019-03-29T10:46:24.070Z,57.10
2019-03-29T10:48:51.573Z,57.87
2019-03-29T10:51:19.180Z,56.60
2019-03-29T10:53:46.655Z,55.35
2019-03-29T10:56:14.139Z,54.81
2019-03-29T10:58:44.732Z,54.65
2019-03-29T11:01:09.087Z,56.20
2019-03-29T11:03:36.515Z,54.26
2019-03-29T11:06:03.974Z,54.52
2019-03-29T11:08:32.465Z,54.32
2019-03-29T11:11:00.158Z,55.38
2019-03-29T11:13:27.603Z,55.58
2019-03-29T11:15:55.054Z,55.33
2019-03-29T11:18:22.517Z,55.28
2019-03-29T11:20:50.023Z,54.83
2019-03-29T11:23:17.482Z,54.52
2019-03-29T11:25:48.280Z,54.39
2019-03-29T11:28:12.447Z,55.00
2019-03-29T11:30:42.543Z,54.64
2019-03-29T11:33:07.330Z,54.67
2019-03-29T11:35:34.775Z,55.17
2019-03-29T11:38:02.263Z,54.64
2019-03-29T11:40:29.750Z,54.66
2019-03-29T11:42:57.538Z,54.39
2019-03-29T11:45:24.992Z,54.62
2019-03-29T11:48:06.892Z,54.19
2019-03-29T11:50:20.352Z,53.77
2019-03-29T11:52:47.782Z,53.49
2019-03-29T11:55:15.596Z,53.73
2019-03-29T11:57:43.078Z,52.16
2019-03-29T12:00:10.542Z,52.46
2019-03-29T12:02:38.018Z,52.73
2019-03-29T12:05:05.567Z,54.65
2019-03-29T12:07:34.626Z,54.85
2019-03-29T12:10:02.189Z,53.33
2019-03-29T12:12:29.662Z,53.74
2019-03-29T12:14:57.118Z,54.89
2019-03-29T12:17:24.671Z,53.62
2019-03-29T12:19:52.116Z,54.70
2019-03-29T12:22:19.544Z,55.28
2019-03-29T12:24:47.016Z,55.64
2019-03-29T12:27:14.463Z,54.07
2019-03-29T12:29:41.926Z,56.15
2019-03-29T12:32:09.375Z,54.79
2019-03-29T12:34:36.818Z,55.02
2019-03-29T12:37:04.256Z,55.67
2019-03-29T12:39:31.691Z,54.67
2019-03-29T12:41:59.863Z,55.66
2019-03-29T12:44:27.315Z,53.63
2019-03-29T12:46:54.765Z,54.19
2019-03-29T12:49:22.262Z,54.74
2019-03-29T12:51:49.724Z,54.22
2019-03-29T12:54:17.196Z,50.15
2019-03-29T12:56:44.673Z,53.23
2019-03-29T12:59:12.125Z,52.39
2019-03-29T13:01:40.422Z,52.94
2019-03-29T13:04:09.737Z,52.66
2019-03-29T13:06:34.566Z,51.27
2019-03-29T13:09:02.016Z,51.84
2019-03-29T13:11:29.493Z,51.69
2019-03-29T13:14:09.577Z,53.33
2019-03-29T13:16:27.547Z,51.83
2019-03-29T13:18:53.842Z,52.05
2019-03-29T13:21:20.223Z,50.96
2019-03-29T13:23:47.647Z,49.11
2019-03-29T13:26:15.088Z,50.66
2019-03-29T13:28:42.515Z,49.99
2019-03-29T13:31:09.977Z,48.97
2019-03-29T13:33:37.418Z,49.66
2019-03-29T13:36:04.862Z,50.18
2019-03-29T13:38:32.326Z,50.85
2019-03-29T13:40:59.829Z,51.66
2019-03-29T13:43:27.274Z,51.07
2019-03-29T13:45:54.763Z,52.33
2019-03-29T13:48:22.494Z,51.47
2019-03-29T13:50:49.982Z,51.97
2019-03-29T13:53:17.460Z,50.80
2019-03-29T13:55:44.903Z,52.41
2019-03-29T13:58:12.379Z,51.72
2019-03-29T14:00:39.794Z,52.69
2019-03-29T14:03:07.262Z,53.17
2019-03-29T14:05:34.681Z,52.00
2019-03-29T14:08:02.135Z,53.17
2019-03-29T14:10:29.620Z,51.78
2019-03-29T14:12:57.070Z,52.92
2019-03-29T14:15:24.550Z,53.19
2019-03-29T14:17:52.945Z,51.67
2019-03-29T14:20:29.977Z,50.94
2019-03-29T14:22:57.461Z,51.89
2019-03-29T14:25:24.916Z,52.68
2019-03-29T14:27:53.172Z,51.50
2019-03-29T14:30:20.639Z,50.53
2019-03-29T14:32:48.104Z,49.78
2019-03-29T14:35:15.548Z,50.75
2019-03-29T14:37:43.051Z,50.50
2019-03-29T14:40:10.537Z,50.75
2019-03-29T14:42:37.982Z,50.59
2019-03-29T14:45:06.200Z,51.09
2019-03-29T14:47:41.262Z,50.74
2019-03-29T14:50:02.281Z,50.38
2019-03-29T14:52:29.757Z,49.72
2019-03-29T14:54:57.189Z,48.49
2019-03-29T14:57:24.639Z,49.36
2019-03-29T14:59:52.076Z,49.56
2019-03-29T15:02:22.107Z,50.30
2019-03-29T15:04:47.061Z,50.32
2019-03-29T15:07:14.484Z,49.54
2019-03-29T15:09:41.927Z,48.86
2019-03-29T15:12:09.348Z,48.84
2019-03-29T15:14:36.815Z,48.82
2019-03-29T15:17:04.263Z,48.79
2019-03-29T15:19:31.700Z,48.21
2019-03-29T15:21:59.195Z,49.15
2019-03-29T15:24:26.679Z,48.56
2019-03-29T15:26:54.391Z,48.73
2019-03-29T15:29:21.894Z,49.01
2019-03-29T15:31:49.350Z,49.15
2019-03-29T15:34:16.902Z,49.86
2019-03-29T15:36:44.340Z,49.70
2019-03-29T15:39:11.816Z,49.48
2019-03-29T15:41:39.279Z,48.50
2019-03-29T15:44:06.734Z,48.66
2019-03-29T15:46:34.174Z,48.08
2019-03-29T15:49:01.676Z,47.00
2019-03-29T15:51:29.118Z,47.14
2019-03-29T15:53:56.543Z,47.84
2019-03-29T15:56:24.937Z,47.51
2019-03-29T15:58:52.387Z,47.54
2019-03-29T16:01:19.811Z,46.61
2019-03-29T16:03:47.287Z,47.44
2019-03-29T16:06:14.719Z,47.58
2019-03-29T16:08:43.537Z,47.24
2019-03-29T16:11:17.037Z,46.89
2019-03-29T16:13:38.446Z,46.71
2019-03-29T16:16:05.904Z,47.02
2019-03-29T16:18:33.361Z,46.58
2019-03-29T16:21:00.860Z,46.22
2019-03-29T16:23:28.287Z,46.78
2019-03-29T16:25:55.730Z,46.97
2019-03-29T16:28:23.162Z,46.75
2019-03-29T16:30:50.633Z,46.29
2019-03-29T16:33:18.144Z,46.60
2019-03-29T16:35:45.596Z,45.93
2019-03-29T16:38:13.042Z,46.69
2019-03-29T16:40:40.483Z,46.01
2019-03-29T16:43:07.931Z,47.21
2019-03-29T16:45:47.292Z,46.24
2019-03-29T16:48:02.886Z,45.70
2019-03-29T16:50:30.321Z,46.09
2019-03-29T16:52:57.834Z,45.93
2019-03-29T16:55:25.269Z,45.90
2019-03-29T16:57:52.744Z,45.76
2019-03-29T17:00:20.249Z,45.54
2019-03-29T17:02:47.711Z,45.40
2019-03-29T17:05:15.164Z,45.48
2019-03-29T17:07:42.614Z,45.78
2019-03-29T17:10:10.102Z,45.66
2019-03-29T17:12:37.525Z,45.96
2019-03-29T17:15:04.994Z,46.01
2019-03-29T17:17:32.448Z,46.18
2019-03-29T17:19:59.902Z,46.77
2019-03-29T17:22:27.474Z,46.92
2019-03-29T17:24:57.175Z,47.13
2019-03-29T17:27:22.424Z,47.20
2019-03-29T17:29:49.871Z,47.44
2019-03-29T17:32:17.319Z,47.57
2019-03-29T17:34:44.772Z,48.12
2019-03-29T17:37:12.258Z,48.82
2019-03-29T17:39:39.726Z,48.68
2019-03-29T17:42:07.201Z,49.44
2019-03-29T17:44:34.659Z,49.32
2019-03-29T17:47:02.152Z,50.00
2019-03-29T17:49:29.665Z,49.96
2019-03-29T17:51:58.159Z,49.98
2019-03-29T17:54:26.481Z,50.24
2019-03-29T17:56:53.985Z,50.80
2019-03-29T17:59:21.412Z,50.45
2019-03-29T18:01:48.889Z,50.61
2019-03-29T18:04:16.333Z,50.94
2019-03-29T18:06:46.884Z,51.11
2019-03-29T18:09:11.231Z,51.61
2019-03-29T18:11:38.689Z,51.51
2019-03-29T18:14:06.250Z,51.81
2019-03-29T18:16:33.688Z,52.03
2019-03-29T18:19:01.141Z,52.60
2019-03-29T18:21:28.665Z,52.90
2019-03-29T18:23:56.123Z,52.77
2019-03-29T18:26:23.569Z,53.13
2019-03-29T18:28:51.015Z,53.43
2019-03-29T18:31:18.442Z,53.69
2019-03-29T18:33:45.910Z,53.79
2019-03-29T18:36:13.348Z,53.61
2019-03-29T18:38:40.833Z,53.89
2019-03-29T18:41:09.118Z,54.34
2019-03-29T18:43:36.673Z,53.86
2019-03-29T18:46:04.118Z,54.11
2019-03-29T18:48:31.575Z,54.53
2019-03-29T18:50:59.239Z,54.78
2019-03-29T18:53:26.678Z,54.80
2019-03-29T18:55:54.169Z,54.72
2019-03-29T18:58:21.610Z,54.81
2019-03-29T19:00:49.095Z,54.51
2019-03-29T19:03:16.528Z,54.76
2019-03-29T19:05:43.979Z,54.54
2019-03-29T19:08:11.433Z,54.50
2019-03-29T19:10:38.887Z,54.60
2019-03-29T19:13:06.358Z,54.72
2019-03-29T19:15:34.760Z,54.70
2019-03-29T19:18:02.361Z,54.64
2019-03-29T19:20:29.825Z,54.69
2019-03-29T19:22:57.337Z,54.85
2019-03-29T19:25:24.820Z,55.04
2019-03-29T19:27:52.745Z,55.11
2019-03-29T19:30:20.269Z,55.75
2019-03-29T19:32:48.166Z,55.80
2019-03-29T19:35:15.250Z,55.58
2019-03-29T19:37:42.731Z,55.74
2019-03-29T19:40:10.188Z,55.96
2019-03-29T19:42:37.649Z,55.84
2019-03-29T19:45:05.701Z,56.61
2019-03-29T19:47:33.135Z,57.37
2019-03-29T19:50:01.587Z,57.51
2019-03-29T19:52:29.125Z,58.17
2019-03-29T19:54:56.588Z,59.04
2019-03-29T19:57:24.049Z,59.04
2019-03-29T19:59:51.644Z,58.90
2019-03-29T20:02:19.959Z,59.91
2019-03-29T20:04:47.486Z,60.34
2019-03-29T20:07:14.953Z,60.01
2019-03-29T20:09:42.430Z,59.92
2019-03-29T20:12:09.918Z,59.59
2019-03-29T20:14:37.357Z,60.02
2019-03-29T20:17:04.819Z,59.86
2019-03-29T20:19:32.423Z,60.05
2019-03-29T20:21:59.997Z,59.76
2019-03-29T20:24:27.535Z,59.54
2019-03-29T20:26:55.017Z,59.50
2019-03-29T20:29:22.484Z,59.69
2019-03-29T20:31:50.681Z,60.02
2019-03-29T20:34:17.433Z,60.17
2019-03-29T20:36:45.938Z,60.65
2019-03-29T20:39:13.496Z,60.57
2019-03-29T20:41:40.964Z,60.50
2019-03-29T20:44:08.430Z,60.38
2019-03-29T20:46:35.855Z,60.05
2019-03-29T20:49:03.331Z,59.94
2019-03-29T20:51:31.509Z,60.22
2019-03-29T20:53:58.932Z,60.12
2019-03-29T20:56:28.773Z,59.59
2019-03-29T20:58:53.882Z,59.54
2019-03-29T21:01:21.329Z,59.94
2019-03-29T21:03:48.791Z,59.74
2019-03-29T21:06:16.253Z,59.52
2019-03-29T21:08:43.697Z,59.61
2019-03-29T21:11:11.173Z,59.37
2019-03-29T21:13:38.775Z,58.99
2019-03-29T21:16:06.075Z,58.48
2019-03-29T21:18:33.541Z,58.37
2019-03-29T21:21:01.971Z,58.86
2019-03-29T21:23:29.426Z,58.78
2019-03-29T21:25:56.890Z,58.73
2019-03-29T21:28:24.318Z,58.63
2019-03-29T21:30:51.778Z,58.24
2019-03-29T21:33:19.420Z,58.56
2019-03-29T21:35:46.897Z,58.32
2019-03-29T21:38:15.695Z,58.80
2019-03-29T21:40:43.211Z,58.19
2019-03-29T21:43:10.695Z,58.60
2019-03-29T21:45:38.148Z,58.75
2019-03-29T21:48:27.515Z,58.55
2019-03-29T21:50:33.202Z,58.75
2019-03-29T21:53:00.684Z,58.77
2019-03-29T21:55:28.108Z,58.77
2019-03-29T21:57:55.559Z,58.97
2019-03-29T22:00:23.211Z,58.65
2019-03-29T22:02:50.661Z,58.78
2019-03-29T22:05:18.123Z,59.10
2019-03-29T22:07:45.558Z,58.92
2019-03-29T22:10:13.015Z,58.93
2019-03-29T22:12:43.071Z,59.09
2019-03-29T22:15:07.915Z,59.07
2019-03-29T22:17:35.363Z,59.31
2019-03-29T22:20:03.206Z,58.79
2019-03-29T22:22:30.661Z,59.26
2019-03-29T22:24:58.098Z,58.84
2019-03-29T22:27:25.567Z,58.80
2019-03-29T22:29:53.029Z,58.69
2019-03-29T22:32:20.614Z,58.38
2019-03-29T22:34:48.175Z,58.67
2019-03-29T22:37:15.668Z,58.41
2019-03-29T22:39:43.169Z,58.42
2019-03-29T22:42:10.702Z,58.41
2019-03-29T22:44:38.161Z,58.25
2019-03-29T22:47:06.230Z,58.39
2019-03-29T22:49:33.792Z,58.09
2019-03-29T22:52:01.456Z,58.30
2019-03-29T22:54:29.067Z,58.38
2019-03-29T22:56:56.795Z,58.24
2019-03-29T22:59:24.235Z,58.30
2019-03-29T23:01:51.667Z,58.19
2019-03-29T23:04:19.222Z,58.13
2019-03-29T23:06:46.724Z,58.01
2019-03-29T23:09:14.171Z,58.00
2019-03-29T23:11:41.676Z,58.15
2019-03-29T23:14:09.157Z,57.72
2019-03-29T23:16:36.621Z,58.49
2019-03-29T23:19:06.665Z,57.94
2019-03-29T23:21:32.216Z,57.77
2019-03-29T23:23:59.845Z,57.28
2019-03-29T23:26:27.350Z,57.12
2019-03-29T23:28:54.771Z,57.04
2019-03-29T23:31:22.238Z,57.33
2019-03-29T23:33:49.679Z,57.06
2019-03-29T23:36:17.137Z,57.25
2019-03-29T23:38:44.652Z,57.52
2019-03-29T23:41:12.190Z,57.26
2019-03-29T23:43:39.691Z,56.86
2019-03-29T23:46:07.160Z,56.59
2019-03-29T23:48:35.693Z,56.46
2019-03-29T23:51:03.199Z,56.68
2019-03-29T23:53:30.770Z,56.44
2019-03-29T23:55:58.366Z,56.21
2019-03-29T23:58:25.802Z,56.13
